Phoenix, Arizona
Traffic Map
Current Weather Conditions
Phoenix, Arizona
Broken Clouds
Broken Clouds
41°
Feels Like: 41°
Wind Chill: 41° Ceiling: 21000
Heat Index: 41° Visibility: 10mi
Dew Point: Wind: 8mph
Humidity: 14% Direction: 250° (WSW)
Pressure: 29.81in Gusts: 0mph
Raw Report DataKPHX 262351Z 25007KT 10SM FEW110 SCT160 BKN210 BKN250 41/08 A2981 RMK AO2 SLP070 T04060083 10411 20356 56026
Traffic Incident Summary
Active as of:
Severity:
Category:
InformationThere was an issue retrieving the traffic information for this location. Please try a different location or try again shortly.
Advertisements
Track Severe Weather on mobile